sensor_id;sensor_type;location;lat;lon;timestamp;P1;durP1;ratioP1;P2;durP2;ratioP2
28373;SDS011;15616;40.148;-102.718;2023-02-03T00:04:26;16.63;;;3.45;;
28373;SDS011;15616;40.148;-102.718;2023-02-03T00:06:52;14.05;;;3.45;;
28373;SDS011;15616;40.148;-102.718;2023-02-03T00:09:18;13.82;;;3.40;;
28373;SDS011;15616;40.148;-102.718;2023-02-03T00:11:45;13.60;;;2.88;;
28373;SDS011;15616;40.148;-102.718;2023-02-03T00:14:11;11.68;;;3.05;;
28373;SDS011;15616;40.148;-102.718;2023-02-03T00:16:36;12.35;;;3.00;;
28373;SDS011;15616;40.148;-102.718;2023-02-03T00:19:02;12.73;;;2.85;;
28373;SDS011;15616;40.148;-102.718;2023-02-03T00:21:28;12.73;;;3.22;;
28373;SDS011;15616;40.148;-102.718;2023-02-03T00:23:54;13.90;;;3.00;;
28373;SDS011;15616;40.148;-102.718;2023-02-03T00:26:20;13.93;;;3.42;;
28373;SDS011;15616;40.148;-102.718;2023-02-03T00:28:46;11.57;;;3.33;;
28373;SDS011;15616;40.148;-102.718;2023-02-03T00:31:15;13.32;;;3.33;;
28373;SDS011;15616;40.148;-102.718;2023-02-03T00:33:53;12.27;;;3.00;;
28373;SDS011;15616;40.148;-102.718;2023-02-03T00:36:21;11.75;;;3.17;;
28373;SDS011;15616;40.148;-102.718;2023-02-03T00:38:47;13.18;;;3.40;;
28373;SDS011;15616;40.148;-102.718;2023-02-03T00:41:14;13.88;;;3.20;;
28373;SDS011;15616;40.148;-102.718;2023-02-03T00:43:40;12.13;;;3.33;;
28373;SDS011;15616;40.148;-102.718;2023-02-03T00:46:06;10.57;;;3.47;;
28373;SDS011;15616;40.148;-102.718;2023-02-03T00:48:32;8.93;;;2.80;;
28373;SDS011;15616;40.148;-102.718;2023-02-03T00:50:58;16.10;;;2.90;;
28373;SDS011;15616;40.148;-102.718;2023-02-03T00:53:24;11.18;;;3.00;;
28373;SDS011;15616;40.148;-102.718;2023-02-03T00:55:50;13.00;;;3.35;;
28373;SDS011;15616;40.148;-102.718;2023-02-03T00:58:16;12.07;;;3.55;;
28373;SDS011;15616;40.148;-102.718;2023-02-03T01:00:42;16.05;;;3.33;;
28373;SDS011;15616;40.148;-102.718;2023-02-03T01:03:08;13.77;;;3.10;;
28373;SDS011;15616;40.148;-102.718;2023-02-03T01:05:34;14.35;;;3.03;;
28373;SDS011;15616;40.148;-102.718;2023-02-03T01:08:00;14.93;;;3.60;;
28373;SDS011;15616;40.148;-102.718;2023-02-03T01:10:27;11.35;;;3.00;;
28373;SDS011;15616;40.148;-102.718;2023-02-03T01:12:54;11.65;;;3.05;;
28373;SDS011;15616;40.148;-102.718;2023-02-03T01:15:20;11.23;;;3.13;;
28373;SDS011;15616;40.148;-102.718;2023-02-03T01:17:46;12.13;;;2.95;;
28373;SDS011;15616;40.148;-102.718;2023-02-03T01:20:12;10.10;;;3.35;;
28373;SDS011;15616;40.148;-102.718;2023-02-03T01:22:40;11.45;;;2.63;;
28373;SDS011;15616;40.148;-102.718;2023-02-03T01:25:06;12.82;;;3.30;;
28373;SDS011;15616;40.148;-102.718;2023-02-03T01:27:32;14.38;;;3.13;;
28373;SDS011;15616;40.148;-102.718;2023-02-03T01:29:58;11.90;;;2.90;;
28373;SDS011;15616;40.148;-102.718;2023-02-03T01:32:25;10.07;;;3.15;;
28373;SDS011;15616;40.148;-102.718;2023-02-03T01:34:51;9.85;;;3.08;;
28373;SDS011;15616;40.148;-102.718;2023-02-03T01:37:17;10.73;;;2.88;;
28373;SDS011;15616;40.148;-102.718;2023-02-03T01:39:43;9.45;;;3.15;;
28373;SDS011;15616;40.148;-102.718;2023-02-03T01:42:12;13.25;;;3.30;;
28373;SDS011;15616;40.148;-102.718;2023-02-03T01:44:46;8.98;;;3.15;;
28373;SDS011;15616;40.148;-102.718;2023-02-03T01:50:20;10.90;;;3.03;;
28373;SDS011;15616;40.148;-102.718;2023-02-03T01:53:07;10.13;;;3.00;;
28373;SDS011;15616;40.148;-102.718;2023-02-03T01:55:37;10.50;;;3.00;;
28373;SDS011;15616;40.148;-102.718;2023-02-03T01:58:10;13.05;;;3.53;;
28373;SDS011;15616;40.148;-102.718;2023-02-03T02:00:46;14.55;;;3.22;;
28373;SDS011;15616;40.148;-102.718;2023-02-03T02:03:13;12.15;;;2.80;;
28373;SDS011;15616;40.148;-102.718;2023-02-03T02:05:42;12.27;;;2.67;;
28373;SDS011;15616;40.148;-102.718;2023-02-03T02:08:17;12.73;;;3.13;;
28373;SDS011;15616;40.148;-102.718;2023-02-03T02:10:46;12.07;;;3.05;;
28373;SDS011;15616;40.148;-102.718;2023-02-03T02:13:12;12.60;;;2.80;;
28373;SDS011;15616;40.148;-102.718;2023-02-03T02:20:59;8.50;;;2.65;;
28373;SDS011;15616;40.148;-102.718;2023-02-03T02:26:56;9.80;;;2.65;;
28373;SDS011;15616;40.148;-102.718;2023-02-03T02:46:42;13.85;;;2.80;;
28373;SDS011;15616;40.148;-102.718;2023-02-03T02:49:18;12.18;;;2.83;;
28373;SDS011;15616;40.148;-102.718;2023-02-03T02:51:54;11.18;;;2.80;;
28373;SDS011;15616;40.148;-102.718;2023-02-03T02:54:23;10.98;;;2.67;;
28373;SDS011;15616;40.148;-102.718;2023-02-03T02:56:53;9.15;;;2.72;;
28373;SDS011;15616;40.148;-102.718;2023-02-03T02:59:22;8.07;;;2.75;;
28373;SDS011;15616;40.148;-102.718;2023-02-03T03:01:48;11.35;;;2.85;;
28373;SDS011;15616;40.148;-102.718;2023-02-03T03:04:15;13.40;;;2.90;;
28373;SDS011;15616;40.148;-102.718;2023-02-03T03:06:47;8.82;;;2.80;;
28373;SDS011;15616;40.148;-102.718;2023-02-03T03:09:27;13.02;;;2.95;;
28373;SDS011;15616;40.148;-102.718;2023-02-03T03:12:25;13.45;;;3.03;;
28373;SDS011;15616;40.148;-102.718;2023-02-03T03:15:15;9.00;;;2.70;;
28373;SDS011;15616;40.148;-102.718;2023-02-03T03:17:49;9.52;;;2.83;;
28373;SDS011;15616;40.148;-102.718;2023-02-03T03:20:40;8.75;;;2.80;;
28373;SDS011;15616;40.148;-102.718;2023-02-03T03:23:14;11.38;;;2.67;;
28373;SDS011;15616;40.148;-102.718;2023-02-03T03:29:14;11.15;;;2.90;;
28373;SDS011;15616;40.148;-102.718;2023-02-03T03:31:44;11.18;;;3.03;;
28373;SDS011;15616;40.148;-102.718;2023-02-03T03:34:11;11.13;;;3.17;;
28373;SDS011;15616;40.148;-102.718;2023-02-03T03:36:43;8.63;;;2.60;;
28373;SDS011;15616;40.148;-102.718;2023-02-03T03:39:30;8.35;;;2.47;;
28373;SDS011;15616;40.148;-102.718;2023-02-03T03:42:35;8.43;;;2.60;;
28373;SDS011;15616;40.148;-102.718;2023-02-03T03:45:08;8.82;;;2.75;;
28373;SDS011;15616;40.148;-102.718;2023-02-03T03:47:50;12.65;;;3.00;;
28373;SDS011;15616;40.148;-102.718;2023-02-03T03:50:29;9.93;;;3.13;;
28373;SDS011;15616;40.148;-102.718;2023-02-03T03:52:59;9.35;;;2.83;;
28373;SDS011;15616;40.148;-102.718;2023-02-03T03:55:27;8.63;;;2.92;;
28373;SDS011;15616;40.148;-102.718;2023-02-03T04:00:24;9.95;;;2.92;;
28373;SDS011;15616;40.148;-102.718;2023-02-03T04:02:55;9.57;;;2.95;;
28373;SDS011;15616;40.148;-102.718;2023-02-03T04:05:25;10.18;;;2.80;;
28373;SDS011;15616;40.148;-102.718;2023-02-03T04:07:52;8.38;;;2.53;;
28373;SDS011;15616;40.148;-102.718;2023-02-03T04:10:24;11.02;;;3.03;;
28373;SDS011;15616;40.148;-102.718;2023-02-03T04:12:59;10.40;;;2.83;;
28373;SDS011;15616;40.148;-102.718;2023-02-03T04:15:26;8.80;;;2.70;;
28373;SDS011;15616;40.148;-102.718;2023-02-03T04:17:52;9.52;;;2.90;;
28373;SDS011;15616;40.148;-102.718;2023-02-03T04:20:19;7.57;;;2.47;;
28373;SDS011;15616;40.148;-102.718;2023-02-03T04:22:45;7.50;;;2.58;;
28373;SDS011;15616;40.148;-102.718;2023-02-03T04:25:11;8.00;;;2.50;;
28373;SDS011;15616;40.148;-102.718;2023-02-03T04:27:37;10.35;;;2.97;;
28373;SDS011;15616;40.148;-102.718;2023-02-03T04:30:03;10.60;;;3.17;;
28373;SDS011;15616;40.148;-102.718;2023-02-03T04:32:30;7.75;;;2.42;;
28373;SDS011;15616;40.148;-102.718;2023-02-03T04:34:56;8.77;;;2.55;;
28373;SDS011;15616;40.148;-102.718;2023-02-03T04:37:23;11.25;;;3.25;;
28373;SDS011;15616;40.148;-102.718;2023-02-03T04:39:51;10.35;;;2.78;;
28373;SDS011;15616;40.148;-102.718;2023-02-03T04:42:17;9.77;;;2.70;;
28373;SDS011;15616;40.148;-102.718;2023-02-03T04:44:43;10.52;;;2.88;;
28373;SDS011;15616;40.148;-102.718;2023-02-03T04:47:09;13.57;;;2.90;;
28373;SDS011;15616;40.148;-102.718;2023-02-03T04:49:35;10.13;;;2.53;;
28373;SDS011;15616;40.148;-102.718;2023-02-03T04:52:01;10.98;;;2.78;;
28373;SDS011;15616;40.148;-102.718;2023-02-03T04:54:27;10.52;;;2.67;;
28373;SDS011;15616;40.148;-102.718;2023-02-03T04:56:53;7.55;;;2.45;;
28373;SDS011;15616;40.148;-102.718;2023-02-03T04:59:18;8.27;;;2.53;;
28373;SDS011;15616;40.148;-102.718;2023-02-03T05:01:44;8.20;;;2.38;;
28373;SDS011;15616;40.148;-102.718;2023-02-03T05:04:10;8.43;;;2.85;;
28373;SDS011;15616;40.148;-102.718;2023-02-03T05:06:36;9.30;;;2.67;;
28373;SDS011;15616;40.148;-102.718;2023-02-03T05:09:02;9.65;;;2.40;;
28373;SDS011;15616;40.148;-102.718;2023-02-03T05:11:28;11.40;;;2.35;;
28373;SDS011;15616;40.148;-102.718;2023-02-03T05:13:54;6.85;;;2.50;;
28373;SDS011;15616;40.148;-102.718;2023-02-03T05:16:20;12.10;;;2.47;;
28373;SDS011;15616;40.148;-102.718;2023-02-03T05:18:46;10.32;;;2.47;;
28373;SDS011;15616;40.148;-102.718;2023-02-03T05:21:12;9.88;;;2.65;;
28373;SDS011;15616;40.148;-102.718;2023-02-03T05:23:38;8.25;;;2.38;;
28373;SDS011;15616;40.148;-102.718;2023-02-03T05:26:04;14.23;;;2.78;;
28373;SDS011;15616;40.148;-102.718;2023-02-03T05:28:30;10.10;;;2.70;;
28373;SDS011;15616;40.148;-102.718;2023-02-03T05:30:57;7.60;;;2.22;;
28373;SDS011;15616;40.148;-102.718;2023-02-03T05:33:23;7.05;;;2.33;;
28373;SDS011;15616;40.148;-102.718;2023-02-03T05:35:49;9.63;;;2.60;;
28373;SDS011;15616;40.148;-102.718;2023-02-03T05:38:15;7.95;;;2.63;;
28373;SDS011;15616;40.148;-102.718;2023-02-03T05:40:41;10.43;;;2.38;;
28373;SDS011;15616;40.148;-102.718;2023-02-03T05:43:26;8.15;;;2.55;;
28373;SDS011;15616;40.148;-102.718;2023-02-03T05:45:52;7.20;;;2.10;;
28373;SDS011;15616;40.148;-102.718;2023-02-03T05:48:18;5.60;;;2.00;;
28373;SDS011;15616;40.148;-102.718;2023-02-03T05:50:44;9.10;;;2.15;;
28373;SDS011;15616;40.148;-102.718;2023-02-03T05:53:10;7.75;;;2.65;;
28373;SDS011;15616;40.148;-102.718;2023-02-03T05:55:36;9.10;;;2.33;;
28373;SDS011;15616;40.148;-102.718;2023-02-03T05:58:03;8.65;;;2.35;;
28373;SDS011;15616;40.148;-102.718;2023-02-03T06:00:29;6.22;;;2.28;;
28373;SDS011;15616;40.148;-102.718;2023-02-03T06:02:56;7.40;;;2.60;;
28373;SDS011;15616;40.148;-102.718;2023-02-03T06:05:24;7.35;;;2.00;;
28373;SDS011;15616;40.148;-102.718;2023-02-03T06:07:51;9.25;;;2.50;;
28373;SDS011;15616;40.148;-102.718;2023-02-03T06:10:17;7.75;;;2.17;;
28373;SDS011;15616;40.148;-102.718;2023-02-03T06:12:43;7.80;;;2.40;;
28373;SDS011;15616;40.148;-102.718;2023-02-03T06:15:09;10.02;;;2.40;;
28373;SDS011;15616;40.148;-102.718;2023-02-03T06:17:36;10.27;;;2.60;;
28373;SDS011;15616;40.148;-102.718;2023-02-03T06:20:05;8.43;;;2.70;;
28373;SDS011;15616;40.148;-102.718;2023-02-03T06:22:32;14.73;;;3.17;;
28373;SDS011;15616;40.148;-102.718;2023-02-03T06:24:59;19.15;;;2.88;;
28373;SDS011;15616;40.148;-102.718;2023-02-03T06:27:25;17.85;;;2.60;;
28373;SDS011;15616;40.148;-102.718;2023-02-03T06:29:51;14.88;;;2.92;;
28373;SDS011;15616;40.148;-102.718;2023-02-03T06:32:17;18.88;;;2.72;;
28373;SDS011;15616;40.148;-102.718;2023-02-03T06:34:43;14.93;;;2.67;;
28373;SDS011;15616;40.148;-102.718;2023-02-03T06:37:09;16.85;;;3.30;;
28373;SDS011;15616;40.148;-102.718;2023-02-03T06:39:35;11.52;;;3.05;;
28373;SDS011;15616;40.148;-102.718;2023-02-03T06:42:01;12.75;;;3.53;;
28373;SDS011;15616;40.148;-102.718;2023-02-03T06:44:27;12.00;;;2.58;;
28373;SDS011;15616;40.148;-102.718;2023-02-03T06:46:53;15.40;;;2.55;;
28373;SDS011;15616;40.148;-102.718;2023-02-03T06:49:20;13.07;;;3.35;;
28373;SDS011;15616;40.148;-102.718;2023-02-03T06:51:46;18.88;;;2.92;;
28373;SDS011;15616;40.148;-102.718;2023-02-03T06:54:12;25.63;;;3.00;;
28373;SDS011;15616;40.148;-102.718;2023-02-03T06:56:38;37.63;;;3.83;;
28373;SDS011;15616;40.148;-102.718;2023-02-03T06:59:04;28.05;;;3.28;;
28373;SDS011;15616;40.148;-102.718;2023-02-03T07:01:30;39.85;;;4.22;;
28373;SDS011;15616;40.148;-102.718;2023-02-03T07:03:56;58.90;;;3.97;;
28373;SDS011;15616;40.148;-102.718;2023-02-03T07:06:25;42.00;;;3.38;;
28373;SDS011;15616;40.148;-102.718;2023-02-03T07:08:57;45.67;;;4.00;;
28373;SDS011;15616;40.148;-102.718;2023-02-03T07:11:23;45.42;;;4.47;;
28373;SDS011;15616;40.148;-102.718;2023-02-03T07:13:49;49.20;;;4.82;;
28373;SDS011;15616;40.148;-102.718;2023-02-03T07:16:15;52.60;;;4.55;;
28373;SDS011;15616;40.148;-102.718;2023-02-03T07:18:42;50.28;;;4.07;;
28373;SDS011;15616;40.148;-102.718;2023-02-03T07:21:08;59.35;;;4.85;;
28373;SDS011;15616;40.148;-102.718;2023-02-03T07:23:34;41.47;;;4.78;;
28373;SDS011;15616;40.148;-102.718;2023-02-03T07:26:01;65.70;;;5.18;;
28373;SDS011;15616;40.148;-102.718;2023-02-03T07:28:29;131.15;;;8.73;;
28373;SDS011;15616;40.148;-102.718;2023-02-03T07:30:55;76.90;;;5.22;;
28373;SDS011;15616;40.148;-102.718;2023-02-03T07:33:22;125.65;;;9.40;;
28373;SDS011;15616;40.148;-102.718;2023-02-03T07:35:54;60.35;;;5.55;;
28373;SDS011;15616;40.148;-102.718;2023-02-03T07:38:21;49.45;;;4.70;;
28373;SDS011;15616;40.148;-102.718;2023-02-03T07:40:49;30.48;;;4.15;;
28373;SDS011;15616;40.148;-102.718;2023-02-03T07:43:15;30.17;;;3.60;;
28373;SDS011;15616;40.148;-102.718;2023-02-03T07:45:42;67.88;;;6.68;;
28373;SDS011;15616;40.148;-102.718;2023-02-03T07:48:08;52.45;;;5.20;;
28373;SDS011;15616;40.148;-102.718;2023-02-03T07:50:34;76.13;;;6.63;;
28373;SDS011;15616;40.148;-102.718;2023-02-03T07:53:01;43.97;;;5.05;;
28373;SDS011;15616;40.148;-102.718;2023-02-03T07:55:27;48.85;;;4.78;;
28373;SDS011;15616;40.148;-102.718;2023-02-03T07:57:54;36.55;;;4.65;;
28373;SDS011;15616;40.148;-102.718;2023-02-03T08:00:21;54.30;;;4.63;;
28373;SDS011;15616;40.148;-102.718;2023-02-03T08:02:48;48.47;;;4.85;;
28373;SDS011;15616;40.148;-102.718;2023-02-03T08:05:14;49.53;;;4.93;;
28373;SDS011;15616;40.148;-102.718;2023-02-03T08:07:41;58.60;;;5.85;;
28373;SDS011;15616;40.148;-102.718;2023-02-03T08:10:08;50.40;;;5.28;;
28373;SDS011;15616;40.148;-102.718;2023-02-03T08:12:35;59.22;;;4.78;;
28373;SDS011;15616;40.148;-102.718;2023-02-03T08:15:02;47.58;;;4.93;;
28373;SDS011;15616;40.148;-102.718;2023-02-03T08:17:28;59.83;;;4.97;;
28373;SDS011;15616;40.148;-102.718;2023-02-03T08:19:54;44.97;;;4.25;;
28373;SDS011;15616;40.148;-102.718;2023-02-03T08:22:20;58.58;;;5.05;;
28373;SDS011;15616;40.148;-102.718;2023-02-03T08:24:46;37.00;;;4.95;;
28373;SDS011;15616;40.148;-102.718;2023-02-03T08:27:16;46.53;;;5.65;;
28373;SDS011;15616;40.148;-102.718;2023-02-03T08:29:43;54.33;;;5.28;;
28373;SDS011;15616;40.148;-102.718;2023-02-03T08:32:10;51.13;;;4.63;;
28373;SDS011;15616;40.148;-102.718;2023-02-03T08:34:37;77.22;;;6.85;;
28373;SDS011;15616;40.148;-102.718;2023-02-03T08:37:03;64.90;;;5.40;;
28373;SDS011;15616;40.148;-102.718;2023-02-03T08:39:30;58.92;;;5.72;;
28373;SDS011;15616;40.148;-102.718;2023-02-03T08:41:57;32.92;;;4.32;;
28373;SDS011;15616;40.148;-102.718;2023-02-03T08:44:23;58.92;;;5.72;;
28373;SDS011;15616;40.148;-102.718;2023-02-03T08:46:50;53.97;;;5.50;;
28373;SDS011;15616;40.148;-102.718;2023-02-03T08:49:17;77.65;;;6.43;;
28373;SDS011;15616;40.148;-102.718;2023-02-03T08:51:44;38.08;;;4.90;;
28373;SDS011;15616;40.148;-102.718;2023-02-03T08:54:11;41.40;;;4.93;;
28373;SDS011;15616;40.148;-102.718;2023-02-03T08:56:38;57.72;;;5.18;;
28373;SDS011;15616;40.148;-102.718;2023-02-03T08:59:04;69.10;;;6.82;;
28373;SDS011;15616;40.148;-102.718;2023-02-03T09:01:30;60.13;;;5.50;;
28373;SDS011;15616;40.148;-102.718;2023-02-03T09:03:56;55.33;;;5.65;;
28373;SDS011;15616;40.148;-102.718;2023-02-03T09:06:23;57.50;;;5.28;;
28373;SDS011;15616;40.148;-102.718;2023-02-03T09:08:49;70.22;;;6.53;;
28373;SDS011;15616;40.148;-102.718;2023-02-03T09:11:16;59.08;;;6.18;;
28373;SDS011;15616;40.148;-102.718;2023-02-03T09:13:43;62.63;;;5.30;;
28373;SDS011;15616;40.148;-102.718;2023-02-03T09:16:13;66.47;;;6.00;;
28373;SDS011;15616;40.148;-102.718;2023-02-03T09:18:42;71.03;;;5.45;;
28373;SDS011;15616;40.148;-102.718;2023-02-03T09:21:09;46.53;;;5.32;;
28373;SDS011;15616;40.148;-102.718;2023-02-03T09:23:36;67.10;;;5.97;;
28373;SDS011;15616;40.148;-102.718;2023-02-03T09:26:03;56.25;;;5.70;;
28373;SDS011;15616;40.148;-102.718;2023-02-03T09:28:30;78.35;;;7.22;;
28373;SDS011;15616;40.148;-102.718;2023-02-03T09:31:05;81.50;;;7.20;;
28373;SDS011;15616;40.148;-102.718;2023-02-03T09:33:32;94.00;;;6.45;;
28373;SDS011;15616;40.148;-102.718;2023-02-03T09:35:59;65.50;;;6.10;;
28373;SDS011;15616;40.148;-102.718;2023-02-03T09:38:25;55.15;;;6.50;;
28373;SDS011;15616;40.148;-102.718;2023-02-03T09:40:53;72.85;;;7.40;;
28373;SDS011;15616;40.148;-102.718;2023-02-03T09:46:20;94.30;;;8.50;;
28373;SDS011;15616;40.148;-102.718;2023-02-03T09:48:51;63.45;;;6.18;;
28373;SDS011;15616;40.148;-102.718;2023-02-03T09:51:32;67.00;;;6.07;;
28373;SDS011;15616;40.148;-102.718;2023-02-03T09:54:14;100.75;;;8.32;;
28373;SDS011;15616;40.148;-102.718;2023-02-03T09:56:47;86.50;;;6.57;;
28373;SDS011;15616;40.148;-102.718;2023-02-03T09:59:16;59.30;;;6.45;;
28373;SDS011;15616;40.148;-102.718;2023-02-03T10:07:13;84.05;;;7.85;;
28373;SDS011;15616;40.148;-102.718;2023-02-03T10:18:13;73.50;;;7.18;;
28373;SDS011;15616;40.148;-102.718;2023-02-03T10:23:22;80.30;;;7.30;;
28373;SDS011;15616;40.148;-102.718;2023-02-03T10:25:58;64.68;;;6.35;;
28373;SDS011;15616;40.148;-102.718;2023-02-03T10:28:36;48.47;;;5.82;;
28373;SDS011;15616;40.148;-102.718;2023-02-03T10:31:14;60.45;;;6.63;;
28373;SDS011;15616;40.148;-102.718;2023-02-03T10:33:43;54.47;;;5.88;;
28373;SDS011;15616;40.148;-102.718;2023-02-03T10:36:20;74.28;;;6.68;;
28373;SDS011;15616;40.148;-102.718;2023-02-03T10:41:49;58.38;;;6.13;;
28373;SDS011;15616;40.148;-102.718;2023-02-03T10:44:15;48.42;;;5.55;;
28373;SDS011;15616;40.148;-102.718;2023-02-03T10:46:41;55.38;;;6.18;;
28373;SDS011;15616;40.148;-102.718;2023-02-03T10:49:09;48.78;;;5.47;;
28373;SDS011;15616;40.148;-102.718;2023-02-03T10:51:39;59.58;;;5.30;;
28373;SDS011;15616;40.148;-102.718;2023-02-03T10:54:29;65.35;;;6.05;;
28373;SDS011;15616;40.148;-102.718;2023-02-03T10:57:02;69.80;;;5.70;;
28373;SDS011;15616;40.148;-102.718;2023-02-03T10:59:35;48.05;;;5.53;;
28373;SDS011;15616;40.148;-102.718;2023-02-03T11:02:09;55.85;;;6.60;;
28373;SDS011;15616;40.148;-102.718;2023-02-03T11:04:45;50.03;;;5.72;;
28373;SDS011;15616;40.148;-102.718;2023-02-03T11:07:24;35.13;;;5.13;;
28373;SDS011;15616;40.148;-102.718;2023-02-03T11:09:51;49.28;;;5.07;;
28373;SDS011;15616;40.148;-102.718;2023-02-03T11:12:18;48.10;;;5.10;;
28373;SDS011;15616;40.148;-102.718;2023-02-03T11:14:48;49.00;;;5.28;;
28373;SDS011;15616;40.148;-102.718;2023-02-03T11:17:18;62.88;;;5.78;;
28373;SDS011;15616;40.148;-102.718;2023-02-03T11:20:12;57.83;;;6.15;;
28373;SDS011;15616;40.148;-102.718;2023-02-03T11:22:41;61.30;;;5.45;;
28373;SDS011;15616;40.148;-102.718;2023-02-03T11:25:25;42.25;;;5.05;;
28373;SDS011;15616;40.148;-102.718;2023-02-03T11:27:54;58.63;;;6.13;;
28373;SDS011;15616;40.148;-102.718;2023-02-03T11:30:21;51.22;;;5.82;;
28373;SDS011;15616;40.148;-102.718;2023-02-03T11:32:54;42.47;;;5.85;;
28373;SDS011;15616;40.148;-102.718;2023-02-03T11:35:24;54.85;;;6.32;;
28373;SDS011;15616;40.148;-102.718;2023-02-03T11:37:52;61.17;;;7.47;;
28373;SDS011;15616;40.148;-102.718;2023-02-03T11:40:25;58.17;;;6.13;;
28373;SDS011;15616;40.148;-102.718;2023-02-03T11:45:25;67.45;;;6.30;;
28373;SDS011;15616;40.148;-102.718;2023-02-03T11:47:54;72.65;;;7.03;;
28373;SDS011;15616;40.148;-102.718;2023-02-03T11:50:28;82.68;;;5.78;;
28373;SDS011;15616;40.148;-102.718;2023-02-03T11:53:05;67.47;;;6.32;;
28373;SDS011;15616;40.148;-102.718;2023-02-03T11:55:35;107.70;;;8.90;;
28373;SDS011;15616;40.148;-102.718;2023-02-03T12:03:53;62.70;;;6.97;;
28373;SDS011;15616;40.148;-102.718;2023-02-03T12:06:55;68.15;;;6.57;;
28373;SDS011;15616;40.148;-102.718;2023-02-03T12:31:59;69.97;;;6.25;;
28373;SDS011;15616;40.148;-102.718;2023-02-03T12:34:37;51.53;;;7.13;;
28373;SDS011;15616;40.148;-102.718;2023-02-03T12:37:37;83.43;;;7.40;;
28373;SDS011;15616;40.148;-102.718;2023-02-03T12:40:05;70.38;;;7.47;;
28373;SDS011;15616;40.148;-102.718;2023-02-03T12:42:51;116.18;;;7.32;;
28373;SDS011;15616;40.148;-102.718;2023-02-03T12:45:23;81.78;;;7.80;;
28373;SDS011;15616;40.148;-102.718;2023-02-03T12:47:57;65.72;;;7.10;;
28373;SDS011;15616;40.148;-102.718;2023-02-03T12:50:43;62.85;;;6.88;;
28373;SDS011;15616;40.148;-102.718;2023-02-03T12:53:21;69.88;;;7.57;;
28373;SDS011;15616;40.148;-102.718;2023-02-03T12:56:08;63.88;;;6.50;;
28373;SDS011;15616;40.148;-102.718;2023-02-03T12:58:48;84.93;;;9.07;;
28373;SDS011;15616;40.148;-102.718;2023-02-03T13:01:21;98.13;;;7.85;;
28373;SDS011;15616;40.148;-102.718;2023-02-03T13:14:21;68.57;;;6.72;;
28373;SDS011;15616;40.148;-102.718;2023-02-03T13:17:00;73.80;;;8.45;;
28373;SDS011;15616;40.148;-102.718;2023-02-03T13:19:49;58.50;;;6.38;;
28373;SDS011;15616;40.148;-102.718;2023-02-03T13:22:19;73.75;;;7.18;;
28373;SDS011;15616;40.148;-102.718;2023-02-03T13:24:57;73.32;;;6.95;;
28373;SDS011;15616;40.148;-102.718;2023-02-03T13:36:02;94.68;;;8.77;;
28373;SDS011;15616;40.148;-102.718;2023-02-03T13:41:53;62.80;;;6.88;;
28373;SDS011;15616;40.148;-102.718;2023-02-03T13:44:33;81.28;;;7.45;;
28373;SDS011;15616;40.148;-102.718;2023-02-03T13:47:02;75.95;;;6.68;;
28373;SDS011;15616;40.148;-102.718;2023-02-03T13:49:30;75.35;;;9.32;;
28373;SDS011;15616;40.148;-102.718;2023-02-03T13:51:58;69.05;;;7.28;;
28373;SDS011;15616;40.148;-102.718;2023-02-03T13:56:54;106.55;;;8.00;;
28373;SDS011;15616;40.148;-102.718;2023-02-03T14:02:44;99.45;;;8.52;;
28373;SDS011;15616;40.148;-102.718;2023-02-03T14:04:51;84.80;;;6.85;;
28373;SDS011;15616;40.148;-102.718;2023-02-03T14:07:36;102.20;;;8.25;;
28373;SDS011;15616;40.148;-102.718;2023-02-03T14:15:18;57.33;;;6.35;;
28373;SDS011;15616;40.148;-102.718;2023-02-03T14:17:53;57.28;;;7.03;;
28373;SDS011;15616;40.148;-102.718;2023-02-03T14:22:54;57.13;;;6.38;;
28373;SDS011;15616;40.148;-102.718;2023-02-03T14:25:23;67.10;;;6.78;;
28373;SDS011;15616;40.148;-102.718;2023-02-03T14:28:01;65.25;;;6.28;;
28373;SDS011;15616;40.148;-102.718;2023-02-03T14:30:32;45.65;;;5.45;;
28373;SDS011;15616;40.148;-102.718;2023-02-03T14:33:18;75.00;;;7.32;;
28373;SDS011;15616;40.148;-102.718;2023-02-03T14:35:49;56.90;;;6.47;;
28373;SDS011;15616;40.148;-102.718;2023-02-03T14:38:15;51.53;;;5.80;;
28373;SDS011;15616;40.148;-102.718;2023-02-03T14:40:44;81.13;;;6.65;;
28373;SDS011;15616;40.148;-102.718;2023-02-03T14:43:38;84.63;;;8.10;;
28373;SDS011;15616;40.148;-102.718;2023-02-03T14:51:22;76.00;;;7.10;;
28373;SDS011;15616;40.148;-102.718;2023-02-03T14:56:46;86.30;;;7.70;;
28373;SDS011;15616;40.148;-102.718;2023-02-03T14:59:47;59.55;;;6.50;;
28373;SDS011;15616;40.148;-102.718;2023-02-03T15:02:19;58.30;;;7.20;;
28373;SDS011;15616;40.148;-102.718;2023-02-03T15:04:50;71.97;;;6.60;;
28373;SDS011;15616;40.148;-102.718;2023-02-03T15:07:36;59.13;;;7.28;;
28373;SDS011;15616;40.148;-102.718;2023-02-03T15:12:48;104.65;;;7.82;;
28373;SDS011;15616;40.148;-102.718;2023-02-03T15:15:25;62.13;;;8.00;;
28373;SDS011;15616;40.148;-102.718;2023-02-03T15:17:54;82.32;;;7.60;;
28373;SDS011;15616;40.148;-102.718;2023-02-03T15:20:31;59.30;;;7.60;;
28373;SDS011;15616;40.148;-102.718;2023-02-03T15:23:20;70.68;;;8.13;;
28373;SDS011;15616;40.148;-102.718;2023-02-03T15:25:58;68.70;;;7.20;;
28373;SDS011;15616;40.148;-102.718;2023-02-03T15:28:26;56.95;;;7.18;;
28373;SDS011;15616;40.148;-102.718;2023-02-03T15:31:04;60.50;;;6.60;;
28373;SDS011;15616;40.148;-102.718;2023-02-03T15:33:37;60.90;;;6.63;;
28373;SDS011;15616;40.148;-102.718;2023-02-03T15:36:11;64.68;;;6.85;;
28373;SDS011;15616;40.148;-102.718;2023-02-03T15:41:41;88.70;;;7.28;;
28373;SDS011;15616;40.148;-102.718;2023-02-03T15:44:16;54.00;;;6.43;;
28373;SDS011;15616;40.148;-102.718;2023-02-03T15:46:50;58.10;;;6.63;;
28373;SDS011;15616;40.148;-102.718;2023-02-03T15:49:20;89.18;;;7.55;;
28373;SDS011;15616;40.148;-102.718;2023-02-03T15:57:04;51.10;;;6.00;;
28373;SDS011;15616;40.148;-102.718;2023-02-03T15:59:40;49.28;;;6.18;;
28373;SDS011;15616;40.148;-102.718;2023-02-03T16:02:17;56.25;;;6.18;;
28373;SDS011;15616;40.148;-102.718;2023-02-03T16:04:52;57.38;;;7.35;;
28373;SDS011;15616;40.148;-102.718;2023-02-03T16:07:20;57.67;;;5.90;;
28373;SDS011;15616;40.148;-102.718;2023-02-03T16:09:51;52.47;;;6.35;;
28373;SDS011;15616;40.148;-102.718;2023-02-03T16:12:25;60.42;;;6.85;;
28373;SDS011;15616;40.148;-102.718;2023-02-03T16:14:53;66.03;;;7.13;;
28373;SDS011;15616;40.148;-102.718;2023-02-03T16:17:21;49.70;;;5.50;;
28373;SDS011;15616;40.148;-102.718;2023-02-03T16:22:43;79.00;;;7.18;;
28373;SDS011;15616;40.148;-102.718;2023-02-03T16:25:30;55.40;;;6.40;;
28373;SDS011;15616;40.148;-102.718;2023-02-03T16:31:02;58.05;;;7.05;;
28373;SDS011;15616;40.148;-102.718;2023-02-03T16:33:55;54.03;;;6.20;;
28373;SDS011;15616;40.148;-102.718;2023-02-03T16:36:41;68.60;;;6.47;;
28373;SDS011;15616;40.148;-102.718;2023-02-03T16:39:26;64.65;;;6.28;;
28373;SDS011;15616;40.148;-102.718;2023-02-03T16:42:15;47.58;;;5.82;;
28373;SDS011;15616;40.148;-102.718;2023-02-03T16:45:15;52.95;;;6.65;;
28373;SDS011;15616;40.148;-102.718;2023-02-03T16:48:01;62.45;;;6.75;;
28373;SDS011;15616;40.148;-102.718;2023-02-03T16:50:46;52.53;;;6.47;;